Time;durP1;ratioP1;P1;durP2;ratioP2;P2;SDS_P1;SDS_P2;PMS_P1;PMS_P2;Temp;Humidity;BMP_temperature;BMP_pressure;BME280_temperature;BME280_humidity;BME280_pressure;Samples;Min_cycle;Max_cycle;Signal;HPM_P1;HPM_P2
2022/07/16 00:03:34;;;;;;;4.80;1.63;;;18.70;68.20;;;;;;5059220;28;20079;-65
2022/07/16 00:06:00;;;;;;;3.90;1.65;;;18.70;68.60;;;;;;5053749;28;20028;-64
2022/07/16 00:08:25;;;;;;;3.28;1.80;;;18.70;68.70;;;;;;5055031;28;20029;-64
2022/07/16 00:10:51;;;;;;;3.58;1.80;;;18.70;69.00;;;;;;5055256;28;20035;-64
2022/07/16 00:13:16;;;;;;;4.25;1.63;;;18.70;69.10;;;;;;5055742;28;20029;-66
2022/07/16 00:15:42;;;;;;;15.23;3.17;;;18.60;69.80;;;;;;5055709;28;20419;-65
2022/07/16 00:20:52;;;;;;;4.93;2.30;;;18.70;69.40;;;;;;5055240;28;20444;-65
2022/07/16 00:23:17;;;;;;;4.65;2.17;;;18.60;69.10;;;;;;5054975;28;20025;-65
2022/07/16 00:25:43;;;;;;;5.25;2.25;;;18.60;69.30;;;;;;5055047;28;20029;-65
2022/07/16 00:28:08;;;;;;;7.43;2.28;;;18.60;69.40;;;;;;5055968;28;20469;-65
2022/07/16 00:30:34;;;;;;;14.80;2.70;;;18.50;69.70;;;;;;5056435;28;20128;-66
2022/07/16 00:33:00;;;;;;;5.28;2.47;;;18.50;70.10;;;;;;5054631;28;20393;-65
2022/07/16 00:35:27;;;;;;;8.52;2.45;;;18.40;70.40;;;;;;5053207;28;20379;-65
2022/07/16 00:37:53;;;;;;;6.70;2.83;;;18.40;70.30;;;;;;5054374;28;20035;-64
2022/07/16 00:40:19;;;;;;;4.53;2.42;;;18.40;70.50;;;;;;5054472;28;20108;-64
2022/07/16 00:42:44;;;;;;;6.57;2.90;;;18.30;70.60;;;;;;5055309;28;20029;-64
2022/07/16 00:45:10;;;;;;;5.28;2.50;;;18.30;70.60;;;;;;5055578;28;20033;-65
2022/07/16 00:47:35;;;;;;;8.60;3.40;;;18.30;70.50;;;;;;5055162;28;20553;-64
2022/07/16 00:50:01;;;;;;;5.20;2.65;;;18.40;70.40;;;;;;5055113;28;20107;-64
2022/07/16 00:52:27;;;;;;;5.80;2.42;;;18.50;70.50;;;;;;5054302;28;20474;-65
2022/07/16 00:54:52;;;;;;;5.57;2.53;;;18.40;70.40;;;;;;5054847;28;20021;-63
2022/07/16 00:57:18;;;;;;;6.13;2.40;;;18.40;70.60;;;;;;5060473;28;20040;-65
2022/07/16 00:59:43;;;;;;;6.65;2.60;;;18.40;70.60;;;;;;5060256;28;20077;-65
2022/07/16 01:02:09;;;;;;;5.78;2.78;;;18.50;70.50;;;;;;5059419;28;20366;-65
2022/07/16 01:04:35;;;;;;;5.72;2.60;;;18.50;70.30;;;;;;5052609;28;20120;-65
2022/07/16 01:07:01;;;;;;;6.72;3.15;;;18.60;70.20;;;;;;5052671;28;20435;-64
2022/07/16 01:09:27;;;;;;;8.52;2.50;;;18.70;69.90;;;;;;5053310;28;20032;-64
2022/07/16 01:11:53;;;;;;;7.65;3.08;;;18.70;70.00;;;;;;5053614;28;20187;-64
2022/07/16 01:14:19;;;;;;;6.53;2.67;;;18.80;69.70;;;;;;5054077;28;20029;-64
2022/07/16 01:16:45;;;;;;;6.78;2.60;;;18.80;69.70;;;;;;5053747;28;20036;-65
2022/07/16 01:19:12;;;;;;;3.83;2.22;;;18.80;69.80;;;;;;5053705;28;20450;-65
2022/07/16 01:21:38;;;;;;;5.40;2.20;;;18.70;69.90;;;;;;5054244;28;20033;-66
2022/07/16 01:24:04;;;;;;;5.82;2.60;;;18.70;70.00;;;;;;5053966;28;20021;-67
2022/07/16 01:26:29;;;;;;;5.65;2.35;;;18.70;70.10;;;;;;5053649;28;20025;-67
2022/07/16 01:28:55;;;;;;;4.90;2.47;;;18.60;69.90;;;;;;5053537;28;20021;-66
2022/07/16 01:31:21;;;;;;;4.95;2.25;;;18.70;70.10;;;;;;5053360;28;20036;-67
2022/07/16 01:34:24;;;;;;;6.28;2.42;;;18.70;69.90;;;;;;5052197;28;20021;-67
2022/07/16 01:36:32;;;;;;;6.00;2.90;;;18.60;69.90;;;;;;5053162;28;20033;-67
2022/07/16 01:38:57;;;;;;;7.35;2.70;;;18.70;70.60;;;;;;5053281;28;20075;-66
2022/07/16 01:41:23;;;;;;;5.65;2.85;;;18.60;70.50;;;;;;5053447;28;20104;-67
2022/07/16 01:43:48;;;;;;;6.65;2.95;;;18.60;70.70;;;;;;5053496;28;20105;-67
2022/07/16 01:46:14;;;;;;;5.55;2.45;;;18.60;70.70;;;;;;5053608;28;20049;-67
2022/07/16 01:48:39;;;;;;;5.20;2.20;;;18.50;71.10;;;;;;5053565;28;20440;-67
2022/07/16 01:51:05;;;;;;;4.53;2.22;;;18.50;71.30;;;;;;5054457;28;20392;-67
2022/07/16 01:53:31;;;;;;;4.75;2.50;;;18.50;71.70;;;;;;5055450;28;20021;-67
2022/07/16 01:55:59;;;;;;;4.00;1.75;;;18.50;72.10;;;;;;5054166;28;20040;-67
2022/07/16 01:58:25;;;;;;;8.30;2.60;;;18.40;72.20;;;;;;5053382;28;20539;-67
2022/07/16 02:00:50;;;;;;;4.65;2.30;;;18.30;72.30;;;;;;5053092;28;20492;-67
2022/07/16 02:03:16;;;;;;;5.97;2.33;;;18.20;72.60;;;;;;5052587;28;20029;-67
2022/07/16 02:05:42;;;;;;;4.45;2.15;;;18.30;72.50;;;;;;5053131;28;20021;-67
2022/07/16 02:08:08;;;;;;;;;;;18.20;72.80;;;;;;5053948;28;20044;-66
2022/07/16 02:10:34;;;;;;;4.95;2.20;;;18.30;72.80;;;;;;5052456;28;19912;-66
2022/07/16 02:12:59;;;;;;;4.72;2.67;;;18.20;72.70;;;;;;5053849;28;20033;-67
2022/07/16 02:15:26;;;;;;;5.03;2.35;;;18.20;72.90;;;;;;5053730;28;20071;-66
2022/07/16 02:17:51;;;;;;;4.90;2.45;;;18.20;73.00;;;;;;5053797;28;20025;-66
2022/07/16 02:20:17;;;;;;;5.80;2.47;;;18.10;73.20;;;;;;5053076;28;20021;-67
2022/07/16 02:22:43;;;;;;;4.85;2.60;;;18.00;73.20;;;;;;5056477;28;20025;-67
2022/07/16 02:25:10;;;;;;;5.38;2.20;;;18.00;73.30;;;;;;5057322;28;20424;-67
2022/07/16 02:27:35;;;;;;;7.43;2.40;;;18.10;73.10;;;;;;5057209;28;20026;-67
2022/07/16 02:30:02;;;;;;;3.47;2.50;;;18.20;73.30;;;;;;5057018;28;20107;-67
2022/07/16 02:32:28;;;;;;;7.70;2.30;;;18.20;72.70;;;;;;5057012;28;20367;-66
2022/07/16 02:34:54;;;;;;;;;;;18.20;73.00;;;;;;5055852;28;20033;-66
2022/07/16 02:37:20;;;;;;;3.42;2.72;;;18.10;73.80;;;;;;5056728;28;19931;-66
2022/07/16 02:39:46;;;;;;;4.93;2.33;;;18.00;74.20;;;;;;5056463;28;20033;-66
2022/07/16 02:42:11;;;;;;;4.18;2.10;;;18.00;74.90;;;;;;5056858;28;20021;-66
2022/07/16 02:44:37;;;;;;;5.47;2.30;;;17.90;75.40;;;;;;5057109;28;20025;-67
2022/07/16 02:47:02;;;;;;;5.38;2.45;;;17.80;75.80;;;;;;5057284;28;20036;-66
2022/07/16 02:49:28;;;;;;;4.35;2.92;;;17.90;76.00;;;;;;5056901;28;20029;-67
2022/07/16 02:51:53;;;;;;;6.70;2.70;;;17.90;76.10;;;;;;5056753;28;20029;-66
2022/07/16 02:54:19;;;;;;;5.40;2.50;;;17.80;75.90;;;;;;5056398;28;20025;-66
2022/07/16 02:56:45;;;;;;;4.13;2.60;;;17.80;76.10;;;;;;5056499;28;20082;-67
2022/07/16 02:59:10;;;;;;;4.45;2.53;;;17.70;76.80;;;;;;5056199;28;20478;-66
2022/07/16 03:01:36;;;;;;;5.17;2.33;;;17.60;77.10;;;;;;5056643;28;20036;-67
2022/07/16 03:04:01;;;;;;;2.83;2.08;;;17.60;77.50;;;;;;5056749;28;20255;-67
2022/07/16 03:06:27;;;;;;;4.32;2.88;;;17.60;77.90;;;;;;5056521;28;20036;-67
2022/07/16 03:08:52;;;;;;;4.28;2.70;;;17.70;78.30;;;;;;5057224;28;20025;-67
2022/07/16 03:11:18;;;;;;;6.53;3.15;;;17.60;78.30;;;;;;5056892;28;20033;-67
2022/07/16 03:13:43;;;;;;;8.45;2.83;;;17.60;78.60;;;;;;5056777;28;20035;-66
2022/07/16 03:16:09;;;;;;;5.78;2.40;;;17.60;79.00;;;;;;5057237;28;20048;-66
2022/07/16 03:18:35;;;;;;;4.15;2.35;;;17.60;79.50;;;;;;5055306;28;20067;-66
2022/07/16 03:21:00;;;;;;;5.87;2.67;;;17.50;80.30;;;;;;5056791;28;20113;-66
2022/07/16 03:23:26;;;;;;;4.60;2.65;;;17.50;81.10;;;;;;5056821;28;20292;-66
2022/07/16 03:25:52;;;;;;;5.78;2.88;;;17.40;81.60;;;;;;5057551;28;20498;-66
2022/07/16 03:28:17;;;;;;;7.28;2.60;;;17.30;81.80;;;;;;5058326;28;20029;-66
2022/07/16 03:30:43;;;;;;;5.20;2.90;;;17.30;82.10;;;;;;5058791;28;20456;-66
2022/07/16 03:33:08;;;;;;;4.47;3.00;;;17.30;82.50;;;;;;5058533;28;20279;-66
2022/07/16 03:35:34;;;;;;;5.35;2.80;;;17.20;82.60;;;;;;5058883;28;20055;-67
2022/07/16 03:40:44;;;;;;;4.05;2.60;;;17.10;83.40;;;;;;5057955;28;20392;-67
2022/07/16 03:43:09;;;;;;;4.55;3.08;;;17.00;84.20;;;;;;5056322;28;20108;-65
2022/07/16 03:45:35;;;;;;;5.47;3.00;;;16.90;84.80;;;;;;5057052;28;20036;-66
2022/07/16 03:48:01;;;;;;;5.43;3.13;;;16.90;85.40;;;;;;5057761;28;20748;-66
2022/07/16 03:50:27;;;;;;;4.50;2.60;;;16.80;85.90;;;;;;5059292;28;20043;-67
2022/07/16 03:52:52;;;;;;;6.13;2.85;;;16.70;86.30;;;;;;5059337;28;20048;-67
2022/07/16 03:55:18;;;;;;;5.03;3.10;;;16.60;86.70;;;;;;5057308;28;20029;-67
2022/07/16 03:57:44;;;;;;;5.03;2.90;;;16.60;87.30;;;;;;5055779;28;20492;-67
2022/07/16 04:00:11;;;;;;;6.53;2.60;;;16.50;87.70;;;;;;5055927;28;20078;-66
2022/07/16 04:02:37;;;;;;;4.90;2.88;;;16.50;87.90;;;;;;5056127;28;20029;-67
2022/07/16 04:05:03;;;;;;;5.90;2.85;;;16.40;88.10;;;;;;5056289;28;20025;-66
2022/07/16 04:07:28;;;;;;;4.47;2.78;;;16.40;88.40;;;;;;5056511;28;20048;-66
2022/07/16 04:09:54;;;;;;;4.87;2.60;;;16.30;88.60;;;;;;5055610;28;20410;-66
2022/07/16 04:12:23;;;;;;;6.00;3.30;;;16.20;89.20;;;;;;5055566;28;20268;-66
2022/07/16 04:14:52;;;;;;;6.38;2.80;;;16.10;89.70;;;;;;5055344;28;20528;-66
2022/07/16 04:17:18;;;;;;;4.65;2.45;;;16.10;90.00;;;;;;5055100;28;20101;-67
2022/07/16 04:19:44;;;;;;;6.18;2.75;;;16.00;90.20;;;;;;5053650;28;20112;-66
2022/07/16 04:22:10;;;;;;;3.90;2.57;;;16.00;90.40;;;;;;5054808;28;20534;-66
2022/07/16 04:24:35;;;;;;;4.75;2.78;;;16.10;90.40;;;;;;5055601;28;20334;-66
2022/07/16 04:27:01;;;;;;;4.00;2.50;;;16.10;90.40;;;;;;5054885;28;20102;-66
2022/07/16 04:29:27;;;;;;;4.60;2.70;;;16.20;90.30;;;;;;5055110;28;20064;-66
2022/07/16 04:31:52;;;;;;;4.43;2.50;;;16.30;90.20;;;;;;5054788;28;20107;-66
2022/07/16 04:34:18;;;;;;;4.77;2.33;;;16.30;90.10;;;;;;5055033;28;20056;-66
2022/07/16 04:36:44;;;;;;;6.40;2.40;;;16.40;90.20;;;;;;5059370;28;20389;-66
2022/07/16 04:39:10;;;;;;;4.72;2.47;;;16.40;90.20;;;;;;5059614;28;20108;-66
2022/07/16 04:41:36;;;;;;;4.68;2.85;;;16.40;90.30;;;;;;5058232;28;20119;-66
2022/07/16 04:44:02;;;;;;;3.50;2.35;;;16.40;90.30;;;;;;5056446;28;20072;-66
2022/07/16 04:46:27;;;;;;;7.43;2.80;;;16.50;90.30;;;;;;5054677;28;20021;-67
2022/07/16 04:48:53;;;;;;;5.47;2.83;;;16.40;90.10;;;;;;5055155;28;20036;-66
2022/07/16 04:51:18;;;;;;;5.78;2.67;;;16.50;88.80;;;;;;5054926;28;20025;-66
2022/07/16 04:53:44;;;;;;;4.80;2.50;;;16.50;89.20;;;;;;5054385;28;20037;-67
2022/07/16 04:56:09;;;;;;;5.20;2.40;;;16.60;89.70;;;;;;5054922;28;20413;-66
2022/07/16 04:58:35;;;;;;;4.55;2.30;;;16.70;88.90;;;;;;5054359;28;20286;-66
2022/07/16 05:01:01;;;;;;;6.75;2.83;;;16.70;88.40;;;;;;5054422;28;20492;-66
2022/07/16 05:03:27;;;;;;;5.53;2.47;;;16.80;88.50;;;;;;5054419;28;20092;-68
2022/07/16 05:05:52;;;;;;;4.93;2.30;;;16.80;88.80;;;;;;5053055;28;20032;-67
2022/07/16 05:08:18;;;;;;;3.70;2.55;;;16.80;88.00;;;;;;5054170;28;20032;-67
2022/07/16 05:10:44;;;;;;;5.07;2.30;;;16.80;88.30;;;;;;5053947;28;20116;-67
2022/07/16 05:13:10;;;;;;;;;;;16.80;87.50;;;;;;5054653;28;20263;-67
2022/07/16 05:15:36;;;;;;;5.25;2.40;;;16.80;87.90;;;;;;5054029;28;19911;-67
2022/07/16 05:18:03;;;;;;;8.23;2.75;;;16.90;87.70;;;;;;5054442;28;20021;-66
2022/07/16 05:20:29;;;;;;;4.53;2.53;;;17.00;87.20;;;;;;5054724;28;20064;-67
2022/07/16 05:22:55;;;;;;;6.57;2.88;;;17.00;87.00;;;;;;5053965;28;20053;-65
2022/07/16 05:25:21;;;;;;;4.85;2.42;;;17.10;86.80;;;;;;5053498;28;20087;-65
2022/07/16 05:27:47;;;;;;;5.38;2.20;;;17.20;86.70;;;;;;5054003;28;20040;-66
2022/07/16 05:30:13;;;;;;;4.28;2.28;;;17.30;85.90;;;;;;5053780;28;20021;-66
2022/07/16 05:32:39;;;;;;;6.25;2.60;;;17.30;85.60;;;;;;5053932;28;20413;-65
2022/07/16 05:35:05;;;;;;;6.47;2.55;;;17.40;85.50;;;;;;5053741;28;20401;-65
2022/07/16 05:37:31;;;;;;;4.10;2.22;;;17.40;85.40;;;;;;5053703;28;20029;-65
2022/07/16 05:39:57;;;;;;;5.70;2.60;;;17.50;84.50;;;;;;5053584;28;20044;-65
2022/07/16 05:42:22;;;;;;;9.77;2.45;;;17.60;83.70;;;;;;5054321;28;20442;-65
2022/07/16 05:44:48;;;;;;;5.93;2.13;;;17.60;83.20;;;;;;5054074;28;20035;-65
2022/07/16 05:47:13;;;;;;;3.53;1.67;;;17.70;81.80;;;;;;5054033;28;20021;-65
2022/07/16 05:49:39;;;;;;;5.00;2.10;;;17.70;80.10;;;;;;5053720;28;20033;-65
2022/07/16 05:52:04;;;;;;;2.83;1.98;;;17.70;81.10;;;;;;5053201;28;20501;-64
2022/07/16 05:54:30;;;;;;;3.40;2.08;;;17.80;83.20;;;;;;5053176;28;20025;-63
2022/07/16 05:56:56;;;;;;;5.82;2.22;;;17.80;82.10;;;;;;5052805;28;20032;-63
2022/07/16 05:59:22;;;;;;;5.03;1.80;;;17.90;81.50;;;;;;5053381;28;20439;-63
2022/07/16 06:01:47;;;;;;;3.13;1.88;;;17.90;81.30;;;;;;5052937;28;20025;-63
2022/07/16 06:04:13;;;;;;;5.13;1.80;;;17.90;81.30;;;;;;5051783;28;20021;-63
2022/07/16 06:06:38;;;;;;;3.22;1.88;;;18.00;80.70;;;;;;5051721;28;20021;-63
2022/07/16 06:09:04;;;;;;;6.05;2.47;;;18.00;80.80;;;;;;5052813;28;20110;-63
2022/07/16 06:11:29;;;;;;;3.85;2.17;;;18.00;80.80;;;;;;5052968;28;20025;-64
2022/07/16 06:13:55;;;;;;;5.97;2.15;;;18.10;80.40;;;;;;5052997;28;20057;-64
2022/07/16 06:16:22;;;;;;;3.70;1.75;;;18.10;80.50;;;;;;5053787;28;20433;-65
2022/07/16 06:18:48;;;;;;;4.82;2.03;;;18.30;81.00;;;;;;5053513;28;20029;-64
2022/07/16 06:21:13;;;;;;;2.90;1.95;;;18.50;79.10;;;;;;5052145;28;20025;-64
2022/07/16 06:23:39;;;;;;;9.77;2.10;;;18.60;78.70;;;;;;5051857;28;20032;-66
2022/07/16 06:26:05;;;;;;;3.85;1.95;;;18.60;77.00;;;;;;5053087;28;20271;-67
2022/07/16 06:28:30;;;;;;;3.72;2.05;;;18.60;76.40;;;;;;5051373;28;20040;-65
2022/07/16 06:30:56;;;;;;;5.05;2.40;;;18.60;77.80;;;;;;5053562;28;20104;-64
2022/07/16 06:33:21;;;;;;;3.75;2.03;;;18.60;76.90;;;;;;5053611;28;20041;-67
2022/07/16 06:35:47;;;;;;;3.50;1.83;;;18.80;76.90;;;;;;5053119;28;20025;-68
2022/07/16 06:38:13;;;;;;;4.25;1.73;;;18.90;76.30;;;;;;5052831;28;20025;-67
2022/07/16 06:40:43;;;;;;;2.70;1.70;;;18.90;75.80;;;;;;5053058;28;20029;-68
2022/07/16 06:43:09;;;;;;;4.82;2.03;;;19.00;76.20;;;;;;5053680;28;20029;-64
2022/07/16 06:45:34;;;;;;;3.85;2.05;;;19.10;76.60;;;;;;5053061;28;20489;-66
2022/07/16 06:48:00;;;;;;;6.65;2.17;;;19.10;74.60;;;;;;5052686;28;20032;-66
2022/07/16 06:50:26;;;;;;;6.60;1.95;;;19.40;75.60;;;;;;5052635;28;20070;-66
2022/07/16 06:52:51;;;;;;;5.97;1.98;;;19.50;75.80;;;;;;5052918;28;20031;-66
2022/07/16 06:55:17;;;;;;;5.30;1.77;;;19.70;74.00;;;;;;5053078;28;20036;-66
2022/07/16 06:57:43;;;;;;;16.85;2.05;;;19.80;73.80;;;;;;5053093;28;20426;-67
2022/07/16 07:00:09;;;;;;;3.63;1.77;;;20.00;74.50;;;;;;5054068;28;20118;-67
2022/07/16 07:02:35;;;;;;;6.43;1.83;;;20.10;73.20;;;;;;5055191;28;20021;-68
2022/07/16 07:05:00;;;;;;;7.22;2.20;;;20.30;72.30;;;;;;5054558;28;20025;-68
2022/07/16 07:07:26;;;;;;;6.40;1.67;;;20.30;73.50;;;;;;5052169;28;20029;-68
2022/07/16 07:09:51;;;;;;;4.45;1.73;;;20.40;73.40;;;;;;5054513;28;20037;-67
2022/07/16 07:12:17;;;;;;;3.95;2.05;;;20.50;71.70;;;;;;5056194;28;20397;-68
2022/07/16 07:14:42;;;;;;;4.50;1.88;;;20.40;71.60;;;;;;5056623;28;20028;-67
2022/07/16 07:17:08;;;;;;;2.60;1.60;;;20.40;71.90;;;;;;5057404;28;20090;-68
2022/07/16 07:19:34;;;;;;;4.90;1.88;;;20.40;71.80;;;;;;5056779;28;20021;-67
2022/07/16 07:22:00;;;;;;;2.90;1.70;;;20.40;71.10;;;;;;5055795;28;20029;-67
2022/07/16 07:24:25;;;;;;;5.30;2.25;;;20.40;70.80;;;;;;5056539;28;20028;-67
2022/07/16 07:26:51;;;;;;;3.90;1.60;;;20.50;71.60;;;;;;5056880;28;20029;-67
2022/07/16 07:29:17;;;;;;;2.55;1.30;;;20.50;70.90;;;;;;5056015;28;20036;-66
2022/07/16 07:31:42;;;;;;;2.05;1.52;;;20.60;71.10;;;;;;5055083;28;20033;-68
2022/07/16 07:34:08;;;;;;;3.95;1.35;;;20.70;70.30;;;;;;5056071;28;20436;-67
2022/07/16 07:36:33;;;;;;;5.55;1.77;;;20.80;70.00;;;;;;5054911;28;20405;-68
2022/07/16 07:38:59;;;;;;;3.45;1.55;;;20.90;69.60;;;;;;5057395;28;20405;-67
2022/07/16 07:41:24;;;;;;;4.38;1.45;;;21.00;68.30;;;;;;5056236;28;20032;-70
2022/07/16 07:43:50;;;;;;;3.42;1.30;;;21.10;67.50;;;;;;5057281;28;20031;-68
2022/07/16 07:46:15;;;;;;;2.92;1.30;;;21.30;67.50;;;;;;5058914;28;20390;-70
2022/07/16 07:48:41;;;;;;;4.63;1.98;;;21.30;67.50;;;;;;5057426;28;20393;-71
2022/07/16 07:51:07;;;;;;;4.20;1.52;;;21.40;67.20;;;;;;5054952;28;20450;-66
2022/07/16 07:53:34;;;;;;;1.85;1.67;;;21.40;67.20;;;;;;5056624;28;20021;-66
2022/07/16 07:56:00;;;;;;;4.63;1.33;;;21.50;67.30;;;;;;5056008;28;20070;-69
2022/07/16 07:58:25;;;;;;;2.10;1.40;;;21.60;66.30;;;;;;5056540;28;20028;-67
2022/07/16 08:00:54;;;;;;;7.78;1.42;;;21.70;65.50;;;;;;5056647;28;20032;-68
2022/07/16 08:03:23;;;;;;;4.22;1.38;;;21.80;64.80;;;;;;5056493;28;20109;-65
2022/07/16 08:05:48;;;;;;;6.38;1.48;;;22.00;65.50;;;;;;5056097;28;20079;-67
2022/07/16 08:08:14;;;;;;;6.63;1.35;;;22.20;65.30;;;;;;5054744;28;20028;-68
2022/07/16 08:10:40;;;;;;;5.95;1.45;;;22.20;64.50;;;;;;5055465;28;20509;-69
2022/07/16 08:13:05;;;;;;;4.22;1.42;;;22.30;64.30;;;;;;5054099;28;20040;-70
2022/07/16 08:15:31;;;;;;;3.28;1.50;;;22.50;64.40;;;;;;5054156;28;20398;-68
2022/07/16 08:17:57;;;;;;;;;;;23.60;63.00;;;;;;5055745;28;20025;-71
2022/07/16 08:20:23;;;;;;;2.47;1.50;;;25.70;59.50;;;;;;5059795;28;19916;-70
2022/07/16 08:22:48;;;;;;;4.70;1.88;;;27.90;56.10;;;;;;5062992;28;20104;-69
2022/07/16 08:27:58;;;;;;;4.43;1.00;;;31.80;51.20;;;;;;5057139;28;20508;-67
2022/07/16 08:30:24;;;;;;;5.65;1.35;;;33.30;49.20;;;;;;5054843;28;20041;-67
2022/07/16 08:32:49;;;;;;;2.90;1.10;;;34.10;47.80;;;;;;5054650;28;20029;-68
2022/07/16 08:35:15;;;;;;;3.90;1.10;;;35.10;47.40;;;;;;5054665;28;20025;-69
2022/07/16 08:37:43;;;;;;;2.30;1.00;;;34.90;46.90;;;;;;5054720;28;20480;-72
2022/07/16 08:40:12;;;;;;;3.92;1.10;;;34.30;46.40;;;;;;5054271;28;20025;-68
2022/07/16 08:42:39;;;;;;;2.35;0.90;;;35.20;45.90;;;;;;5054510;28;20075;-69
2022/07/16 08:45:06;;;;;;;3.30;1.10;;;35.80;45.30;;;;;;5054283;28;20013;-69
2022/07/16 08:47:34;;;;;;;3.08;1.10;;;36.00;45.40;;;;;;5054530;28;20024;-65
2022/07/16 08:50:01;;;;;;;3.22;1.20;;;36.40;45.00;;;;;;5054786;28;20477;-71
2022/07/16 08:52:28;;;;;;;3.30;1.27;;;37.10;44.50;;;;;;5056498;28;20077;-71
2022/07/16 08:54:54;;;;;;;2.05;1.08;;;37.50;44.10;;;;;;5056419;28;20025;-70
2022/07/16 08:57:21;;;;;;;5.57;1.67;;;37.00;44.20;;;;;;5055976;28;20048;-69
2022/07/16 08:59:47;;;;;;;5.70;1.45;;;37.20;44.30;;;;;;5055939;28;20029;-70
2022/07/16 09:02:14;;;;;;;2.25;1.38;;;37.90;43.80;;;;;;5053844;28;20067;-71
2022/07/16 09:04:41;;;;;;;3.00;1.40;;;38.30;43.60;;;;;;5055837;28;20070;-73
2022/07/16 09:07:10;;;;;;;4.40;1.63;;;38.60;43.30;;;;;;5055470;28;20032;-71
2022/07/16 09:09:35;;;;;;;2.95;1.42;;;39.00;42.80;;;;;;5053628;28;20033;-70
2022/07/16 09:12:01;;;;;;;3.38;1.38;;;39.00;42.60;;;;;;5056374;28;20032;-70
2022/07/16 09:14:27;;;;;;;3.17;1.20;;;38.90;42.60;;;;;;5054793;28;20033;-67
2022/07/16 09:16:54;;;;;;;2.63;1.17;;;39.10;42.70;;;;;;5053935;28;20021;-66
2022/07/16 09:19:25;;;;;;;3.72;1.40;;;39.60;42.60;;;;;;5053639;28;20024;-66
2022/07/16 09:22:12;;;;;;;5.32;1.20;;;39.40;42.30;;;;;;5053672;28;20398;-68
2022/07/16 09:24:40;;;;;;;1.95;1.25;;;39.10;42.70;;;;;;5054740;28;20103;-66
2022/07/16 09:27:12;;;;;;;3.10;1.40;;;38.90;42.90;;;;;;5057397;28;20028;-68
2022/07/16 09:29:51;;;;;;;4.35;1.23;;;39.10;42.60;;;;;;5054426;28;20393;-68
2022/07/16 09:32:28;;;;;;;5.43;1.42;;;37.60;43.10;;;;;;5051699;28;20109;-69
2022/07/16 09:35:01;;;;;;;1.98;1.08;;;37.50;43.30;;;;;;5053544;28;20170;-66
2022/07/16 09:37:43;;;;;;;4.32;1.10;;;37.80;43.20;;;;;;5054040;28;20033;-68
2022/07/16 09:40:09;;;;;;;4.50;1.40;;;38.70;42.70;;;;;;5053254;28;20024;-66
2022/07/16 09:42:38;;;;;;;2.15;1.50;;;39.60;42.40;;;;;;5053567;28;20100;-67
2022/07/16 09:45:05;;;;;;;2.92;1.15;;;39.50;42.40;;;;;;5053376;28;20445;-66
2022/07/16 09:47:31;;;;;;;3.35;1.40;;;39.80;41.80;;;;;;5050641;28;20024;-67
2022/07/16 09:49:57;;;;;;;5.57;1.50;;;39.60;41.20;;;;;;5053062;28;20078;-67
2022/07/16 09:52:31;;;;;;;4.32;1.30;;;39.40;42.10;;;;;;5053403;28;20033;-67
2022/07/16 09:54:58;;;;;;;4.68;1.30;;;39.40;41.70;;;;;;5053142;28;20033;-67
2022/07/16 09:57:26;;;;;;;5.40;1.63;;;39.90;42.40;;;;;;5053026;28;20131;-66
2022/07/16 09:59:54;;;;;;;3.17;1.15;;;40.20;42.10;;;;;;5051767;28;20049;-66
2022/07/16 10:02:20;;;;;;;2.70;1.10;;;40.50;41.80;;;;;;5051833;28;20051;-66
2022/07/16 10:04:46;;;;;;;3.03;1.20;;;41.10;40.80;;;;;;5053161;28;20031;-65
2022/07/16 10:07:12;;;;;;;3.05;1.27;;;40.40;40.10;;;;;;5053045;28;20025;-66
2022/07/16 10:09:38;;;;;;;3.58;1.30;;;40.30;40.00;;;;;;5052877;28;20037;-65
2022/07/16 10:12:08;;;;;;;4.55;1.20;;;39.60;40.10;;;;;;5053056;28;20445;-66
2022/07/16 10:14:36;;;;;;;2.83;1.00;;;38.90;40.80;;;;;;5053203;28;20066;-65
2022/07/16 10:17:15;;;;;;;2.35;0.95;;;38.50;39.50;;;;;;5052990;28;20028;-66
2022/07/16 10:19:41;;;;;;;3.30;1.25;;;39.30;39.60;;;;;;5052763;28;20025;-66
2022/07/16 10:22:15;;;;;;;1.80;1.08;;;39.40;39.20;;;;;;5051529;28;20029;-66
2022/07/16 10:24:58;;;;;;;1.92;1.05;;;37.10;40.00;;;;;;5052897;28;20014;-65
2022/07/16 10:27:35;;;;;;;1.65;0.90;;;38.30;39.00;;;;;;5053049;28;20031;-65
2022/07/16 10:30:22;;;;;;;2.95;1.02;;;39.20;38.90;;;;;;5053124;28;20045;-66
2022/07/16 10:33:00;;;;;;;1.60;0.82;;;39.80;38.10;;;;;;5054204;28;20025;-66
2022/07/16 10:35:45;;;;;;;2.35;0.90;;;39.30;38.40;;;;;;5053736;28;20029;-66
2022/07/16 10:38:18;;;;;;;2.78;1.00;;;39.70;38.70;;;;;;5052679;28;20440;-66
2022/07/16 10:40:45;;;;;;;2.85;0.90;;;39.60;38.80;;;;;;5052808;28;20119;-66
2022/07/16 10:43:17;;;;;;;3.60;0.88;;;39.90;38.50;;;;;;5052234;28;20029;-65
2022/07/16 10:45:55;;;;;;;3.67;1.05;;;39.60;37.80;;;;;;5056628;28;20025;-66
2022/07/16 10:48:45;;;;;;;1.08;0.90;;;39.50;38.50;;;;;;5056826;28;20021;-66
2022/07/16 10:51:16;;;;;;;1.60;0.85;;;39.40;38.20;;;;;;5028256;28;20025;-65
2022/07/16 10:53:57;;;;;;;1.70;0.85;;;39.80;38.20;;;;;;5056941;28;20028;-66
2022/07/16 10:56:32;;;;;;;1.65;0.90;;;39.40;38.40;;;;;;5056399;28;20029;-65
2022/07/16 10:58:58;;;;;;;2.10;1.15;;;39.10;40.00;;;;;;5054885;28;20123;-65
2022/07/16 11:01:24;;;;;;;2.65;0.85;;;38.80;40.30;;;;;;5055491;28;20501;-66
2022/07/16 11:03:53;;;;;;;1.08;0.80;;;38.40;40.30;;;;;;5056397;28;20068;-67
2022/07/16 11:06:22;;;;;;;4.22;1.40;;;38.70;40.70;;;;;;5056648;28;20025;-66
2022/07/16 11:08:59;;;;;;;2.03;0.98;;;38.50;41.30;;;;;;5056140;28;20029;-66
2022/07/16 11:11:36;;;;;;;1.98;1.17;;;38.20;41.00;;;;;;5056308;28;20033;-66
2022/07/16 11:14:03;;;;;;;1.35;0.90;;;37.60;40.60;;;;;;5056868;28;20167;-66
2022/07/16 11:16:30;;;;;;;3.17;1.10;;;36.80;41.00;;;;;;5056510;28;20056;-65
2022/07/16 11:18:59;;;;;;;1.17;0.90;;;34.50;42.70;;;;;;5054671;28;20035;-66
2022/07/16 11:21:25;;;;;;;1.88;1.08;;;33.20;44.30;;;;;;5056298;28;20427;-65
2022/07/16 11:23:59;;;;;;;1.77;1.13;;;31.80;45.10;;;;;;5056426;28;20028;-65
2022/07/16 11:26:25;;;;;;;2.55;0.90;;;31.10;46.10;;;;;;5056818;28;20106;-65
2022/07/16 11:29:17;;;;;;;2.17;1.10;;;30.40;46.50;;;;;;5055698;28;20040;-65
2022/07/16 11:31:43;;;;;;;3.33;0.98;;;29.80;47.50;;;;;;5056272;28;20494;-67
2022/07/16 11:34:11;;;;;;;1.50;0.95;;;29.20;48.30;;;;;;5058559;28;20025;-64
2022/07/16 11:36:48;;;;;;;2.72;1.30;;;28.80;48.90;;;;;;5061170;28;20033;-67
2022/07/16 11:39:17;;;;;;;2.75;1.00;;;28.50;48.90;;;;;;5060810;28;20020;-66
2022/07/16 11:41:45;;;;;;;2.50;1.23;;;28.30;49.20;;;;;;5057733;28;20466;-65
2022/07/16 11:44:13;;;;;;;2.28;1.00;;;28.10;49.40;;;;;;5056239;28;20420;-66
2022/07/16 11:46:58;;;;;;;2.35;1.27;;;27.80;49.70;;;;;;5055849;28;20031;-66
2022/07/16 11:49:32;;;;;;;1.75;1.30;;;27.80;50.40;;;;;;5055513;28;20051;-66
2022/07/16 11:52:00;;;;;;;4.32;1.13;;;27.90;49.60;;;;;;5055869;28;20056;-67
2022/07/16 11:54:29;;;;;;;1.63;0.90;;;27.70;49.70;;;;;;5055651;28;20029;-66
2022/07/16 11:56:56;;;;;;;2.03;0.95;;;27.70;49.70;;;;;;5055623;28;20084;-69
2022/07/16 11:59:27;;;;;;;3.53;1.20;;;27.70;50.10;;;;;;5054406;28;20025;-69
2022/07/16 12:02:10;;;;;;;3.20;1.30;;;27.70;50.70;;;;;;5056335;28;20100;-68
2022/07/16 12:04:39;;;;;;;3.20;1.30;;;27.60;50.70;;;;;;5057502;28;20017;-67
2022/07/16 12:07:08;;;;;;;3.63;1.05;;;27.20;51.20;;;;;;5057710;28;20067;-66
2022/07/16 12:09:40;;;;;;;1.90;1.00;;;27.30;51.60;;;;;;5056573;28;20037;-66
2022/07/16 12:12:12;;;;;;;5.65;1.60;;;27.40;51.60;;;;;;5055909;28;20384;-70
2022/07/16 12:14:42;;;;;;;4.18;1.60;;;27.50;50.70;;;;;;5055576;28;20032;-67
2022/07/16 12:17:27;;;;;;;2.67;1.20;;;27.60;50.20;;;;;;5054042;28;20025;-65
2022/07/16 12:20:12;;;;;;;2.22;1.35;;;27.60;49.80;;;;;;5055300;28;20390;-66
2022/07/16 12:22:51;;;;;;;2.33;1.23;;;27.40;49.70;;;;;;5055091;28;20483;-67
2022/07/16 12:25:27;;;;;;;1.45;1.10;;;27.30;50.00;;;;;;5055835;28;20071;-66
2022/07/16 12:28:01;;;;;;;4.00;1.33;;;27.40;50.30;;;;;;5053896;28;20454;-66
2022/07/16 12:31:00;;;;;;;1.95;1.23;;;27.20;51.00;;;;;;5053911;28;20511;-66
2022/07/16 12:33:27;;;;;;;4.13;1.00;;;27.20;51.40;;;;;;5055590;28;20112;-65
2022/07/16 12:36:03;;;;;;;2.85;1.20;;;27.10;51.40;;;;;;5054256;28;20092;-66
2022/07/16 12:38:38;;;;;;;5.63;1.10;;;27.10;51.80;;;;;;5054787;28;20029;-67
2022/07/16 12:41:07;;;;;;;3.30;1.13;;;27.10;51.50;;;;;;5054622;28;20255;-68
2022/07/16 12:43:33;;;;;;;3.75;1.10;;;26.90;52.20;;;;;;5054692;28;20029;-66
2022/07/16 12:45:59;;;;;;;2.08;1.20;;;26.70;52.30;;;;;;5054723;28;20021;-67
2022/07/16 12:48:27;;;;;;;1.88;1.27;;;26.70;52.80;;;;;;5054374;28;20063;-67
2022/07/16 12:50:53;;;;;;;3.50;1.40;;;26.80;53.20;;;;;;5054372;28;20132;-68
2022/07/16 12:53:18;;;;;;;2.38;1.10;;;27.00;52.90;;;;;;5054561;28;20061;-66
2022/07/16 12:59:03;;;;;;;3.90;2.28;;;27.30;52.40;;;;;;5054373;28;20090;-68
2022/07/16 13:01:23;;;;;;;2.40;1.30;;;27.40;52.40;;;;;;5053433;28;20426;-70
2022/07/16 13:03:49;;;;;;;3.25;1.30;;;27.40;52.60;;;;;;5054198;28;20100;-68